sensor_id;sensor_type;location;lat;lon;timestamp;temperature;humidity
47765;DHT22;33529;49.242;8.670;2022-11-15T00:01:43;9.00;99.90
47765;DHT22;33529;49.242;8.670;2022-11-15T00:04:29;9.00;99.90
47765;DHT22;33529;49.242;8.670;2022-11-15T00:07:14;9.00;99.90
47765;DHT22;33529;49.242;8.670;2022-11-15T00:10:20;9.00;99.90
47765;DHT22;33529;49.242;8.670;2022-11-15T00:13:12;9.00;99.90
47765;DHT22;33529;49.242;8.670;2022-11-15T00:15:59;9.00;99.90
47765;DHT22;33529;49.242;8.670;2022-11-15T00:18:44;9.00;99.90
47765;DHT22;33529;49.242;8.670;2022-11-15T00:21:35;9.10;99.90
47765;DHT22;33529;49.242;8.670;2022-11-15T00:24:20;9.00;99.90
47765;DHT22;33529;49.242;8.670;2022-11-15T00:27:06;9.00;99.90
47765;DHT22;33529;49.242;8.670;2022-11-15T00:29:52;9.00;99.90
47765;DHT22;33529;49.242;8.670;2022-11-15T00:32:37;9.00;99.90
47765;DHT22;33529;49.242;8.670;2022-11-15T00:35:23;8.90;99.90
47765;DHT22;33529;49.242;8.670;2022-11-15T00:38:08;9.00;99.90
47765;DHT22;33529;49.242;8.670;2022-11-15T00:40:53;8.90;99.90
47765;DHT22;33529;49.242;8.670;2022-11-15T00:43:39;8.90;99.90
47765;DHT22;33529;49.242;8.670;2022-11-15T00:46:25;8.80;99.90
47765;DHT22;33529;49.242;8.670;2022-11-15T00:49:10;8.90;99.90
47765;DHT22;33529;49.242;8.670;2022-11-15T00:51:56;8.90;99.90
47765;DHT22;33529;49.242;8.670;2022-11-15T00:54:41;9.00;99.90
47765;DHT22;33529;49.242;8.670;2022-11-15T00:57:27;9.00;99.90
47765;DHT22;33529;49.242;8.670;2022-11-15T01:00:13;8.90;99.90
47765;DHT22;33529;49.242;8.670;2022-11-15T01:03:00;8.90;99.90
47765;DHT22;33529;49.242;8.670;2022-11-15T01:05:46;8.90;99.90
47765;DHT22;33529;49.242;8.670;2022-11-15T01:08:31;8.80;99.90
47765;DHT22;33529;49.242;8.670;2022-11-15T01:11:16;8.70;99.90
47765;DHT22;33529;49.242;8.670;2022-11-15T01:14:02;8.70;99.90
47765;DHT22;33529;49.242;8.670;2022-11-15T01:16:47;8.70;99.90
47765;DHT22;33529;49.242;8.670;2022-11-15T01:19:32;8.70;99.90
47765;DHT22;33529;49.242;8.670;2022-11-15T01:22:18;8.70;99.90
47765;DHT22;33529;49.242;8.670;2022-11-15T01:25:04;8.60;99.90
47765;DHT22;33529;49.242;8.670;2022-11-15T01:27:49;8.60;99.90
47765;DHT22;33529;49.242;8.670;2022-11-15T01:30:36;8.60;99.90
47765;DHT22;33529;49.242;8.670;2022-11-15T01:33:21;8.50;99.90
47765;DHT22;33529;49.242;8.670;2022-11-15T01:36:10;8.40;99.90
47765;DHT22;33529;49.242;8.670;2022-11-15T01:38:57;8.50;99.90
47765;DHT22;33529;49.242;8.670;2022-11-15T01:41:43;8.50;99.90
47765;DHT22;33529;49.242;8.670;2022-11-15T01:44:39;8.40;99.90
47765;DHT22;33529;49.242;8.670;2022-11-15T01:47:28;8.30;99.90
47765;DHT22;33529;49.242;8.670;2022-11-15T01:50:19;8.30;99.90
47765;DHT22;33529;49.242;8.670;2022-11-15T01:53:07;8.30;99.90
47765;DHT22;33529;49.242;8.670;2022-11-15T01:55:53;8.30;99.90
47765;DHT22;33529;49.242;8.670;2022-11-15T01:58:41;8.20;99.90
47765;DHT22;33529;49.242;8.670;2022-11-15T02:01:28;8.30;99.90
47765;DHT22;33529;49.242;8.670;2022-11-15T02:04:26;8.30;99.90
47765;DHT22;33529;49.242;8.670;2022-11-15T02:07:15;8.30;99.90
47765;DHT22;33529;49.242;8.670;2022-11-15T02:10:08;8.30;99.90
47765;DHT22;33529;49.242;8.670;2022-11-15T02:12:55;8.40;99.90
47765;DHT22;33529;49.242;8.670;2022-11-15T02:19:10;8.40;99.90
47765;DHT22;33529;49.242;8.670;2022-11-15T02:25:39;8.50;99.90
47765;DHT22;33529;49.242;8.670;2022-11-15T02:29:05;8.50;99.90
47765;DHT22;33529;49.242;8.670;2022-11-15T02:32:06;8.60;99.90
47765;DHT22;33529;49.242;8.670;2022-11-15T02:35:27;8.60;99.90
47765;DHT22;33529;49.242;8.670;2022-11-15T02:41:23;8.50;99.90
47765;DHT22;33529;49.242;8.670;2022-11-15T02:44:17;8.50;99.90
47765;DHT22;33529;49.242;8.670;2022-11-15T02:47:07;8.50;99.90
47765;DHT22;33529;49.242;8.670;2022-11-15T02:50:02;8.50;99.90
47765;DHT22;33529;49.242;8.670;2022-11-15T02:52:50;8.50;99.90
47765;DHT22;33529;49.242;8.670;2022-11-15T02:55:43;8.60;99.90
47765;DHT22;33529;49.242;8.670;2022-11-15T02:58:40;8.60;99.90
47765;DHT22;33529;49.242;8.670;2022-11-15T03:10:36;8.60;99.90
47765;DHT22;33529;49.242;8.670;2022-11-15T03:16:26;8.60;99.90
47765;DHT22;33529;49.242;8.670;2022-11-15T03:19:34;8.60;99.90
47765;DHT22;33529;49.242;8.670;2022-11-15T03:22:23;8.60;99.90
47765;DHT22;33529;49.242;8.670;2022-11-15T03:25:14;8.60;99.90
47765;DHT22;33529;49.242;8.670;2022-11-15T03:28:03;8.60;99.90
47765;DHT22;33529;49.242;8.670;2022-11-15T03:30:52;8.60;99.90
47765;DHT22;33529;49.242;8.670;2022-11-15T03:33:39;8.60;99.90
47765;DHT22;33529;49.242;8.670;2022-11-15T03:36:25;8.70;99.90
47765;DHT22;33529;49.242;8.670;2022-11-15T03:39:13;8.70;99.90
47765;DHT22;33529;49.242;8.670;2022-11-15T03:48:11;8.70;99.90
47765;DHT22;33529;49.242;8.670;2022-11-15T03:50:58;8.80;99.90
47765;DHT22;33529;49.242;8.670;2022-11-15T03:53:46;8.70;99.90
47765;DHT22;33529;49.242;8.670;2022-11-15T03:56:31;8.80;99.90
47765;DHT22;33529;49.242;8.670;2022-11-15T03:59:17;8.80;99.90
47765;DHT22;33529;49.242;8.670;2022-11-15T04:02:02;8.80;99.90
47765;DHT22;33529;49.242;8.670;2022-11-15T04:04:47;8.90;99.90
47765;DHT22;33529;49.242;8.670;2022-11-15T04:07:33;8.90;99.90
47765;DHT22;33529;49.242;8.670;2022-11-15T04:10:19;8.90;99.90
47765;DHT22;33529;49.242;8.670;2022-11-15T04:13:04;8.90;99.90
47765;DHT22;33529;49.242;8.670;2022-11-15T04:15:49;8.90;99.90
47765;DHT22;33529;49.242;8.670;2022-11-15T04:18:37;8.90;99.90
47765;DHT22;33529;49.242;8.670;2022-11-15T04:21:23;9.00;99.90
47765;DHT22;33529;49.242;8.670;2022-11-15T04:24:27;9.00;99.90
47765;DHT22;33529;49.242;8.670;2022-11-15T04:27:13;9.00;99.90
47765;DHT22;33529;49.242;8.670;2022-11-15T04:29:58;9.10;99.90
47765;DHT22;33529;49.242;8.670;2022-11-15T04:32:44;9.10;99.90
47765;DHT22;33529;49.242;8.670;2022-11-15T04:35:29;9.10;99.90
47765;DHT22;33529;49.242;8.670;2022-11-15T04:38:15;9.10;99.90
47765;DHT22;33529;49.242;8.670;2022-11-15T04:41:01;9.10;99.90
47765;DHT22;33529;49.242;8.670;2022-11-15T04:43:46;9.10;99.90
47765;DHT22;33529;49.242;8.670;2022-11-15T04:46:31;9.10;99.90
47765;DHT22;33529;49.242;8.670;2022-11-15T04:49:17;9.10;99.90
47765;DHT22;33529;49.242;8.670;2022-11-15T04:52:02;9.10;99.90
47765;DHT22;33529;49.242;8.670;2022-11-15T04:54:47;9.20;99.90
47765;DHT22;33529;49.242;8.670;2022-11-15T04:57:33;9.20;99.90
47765;DHT22;33529;49.242;8.670;2022-11-15T05:00:18;9.20;99.90
47765;DHT22;33529;49.242;8.670;2022-11-15T05:03:04;9.30;99.90
47765;DHT22;33529;49.242;8.670;2022-11-15T05:06:08;9.30;99.90
47765;DHT22;33529;49.242;8.670;2022-11-15T05:08:54;9.20;99.90
47765;DHT22;33529;49.242;8.670;2022-11-15T05:11:40;9.20;99.90
47765;DHT22;33529;49.242;8.670;2022-11-15T05:14:25;9.20;99.90
47765;DHT22;33529;49.242;8.670;2022-11-15T05:17:11;9.20;99.90
47765;DHT22;33529;49.242;8.670;2022-11-15T05:19:56;9.20;99.90
47765;DHT22;33529;49.242;8.670;2022-11-15T05:22:41;9.30;99.90
47765;DHT22;33529;49.242;8.670;2022-11-15T05:25:27;9.20;99.90
47765;DHT22;33529;49.242;8.670;2022-11-15T05:28:12;9.20;99.90
47765;DHT22;33529;49.242;8.670;2022-11-15T05:31:06;9.30;99.90
47765;DHT22;33529;49.242;8.670;2022-11-15T05:33:51;9.30;99.90
47765;DHT22;33529;49.242;8.670;2022-11-15T05:36:38;9.20;99.90
47765;DHT22;33529;49.242;8.670;2022-11-15T05:39:24;9.20;99.90
47765;DHT22;33529;49.242;8.670;2022-11-15T05:42:13;9.10;99.90
47765;DHT22;33529;49.242;8.670;2022-11-15T05:45:00;9.10;99.90
47765;DHT22;33529;49.242;8.670;2022-11-15T05:47:47;9.10;99.90
47765;DHT22;33529;49.242;8.670;2022-11-15T05:50:34;9.10;99.90
47765;DHT22;33529;49.242;8.670;2022-11-15T05:53:25;9.10;99.90
47765;DHT22;33529;49.242;8.670;2022-11-15T05:56:11;9.10;99.90
47765;DHT22;33529;49.242;8.670;2022-11-15T05:58:58;9.10;99.90
47765;DHT22;33529;49.242;8.670;2022-11-15T06:01:44;9.10;99.90
47765;DHT22;33529;49.242;8.670;2022-11-15T06:04:30;9.10;99.90
47765;DHT22;33529;49.242;8.670;2022-11-15T06:07:15;9.00;99.90
47765;DHT22;33529;49.242;8.670;2022-11-15T06:10:00;9.00;99.90
47765;DHT22;33529;49.242;8.670;2022-11-15T06:12:45;9.00;99.90
47765;DHT22;33529;49.242;8.670;2022-11-15T06:15:32;9.00;99.90
47765;DHT22;33529;49.242;8.670;2022-11-15T06:18:19;9.00;99.90
47765;DHT22;33529;49.242;8.670;2022-11-15T06:21:05;8.90;99.90
47765;DHT22;33529;49.242;8.670;2022-11-15T06:23:50;8.90;99.90
47765;DHT22;33529;49.242;8.670;2022-11-15T06:26:36;8.80;99.90
47765;DHT22;33529;49.242;8.670;2022-11-15T06:29:21;8.80;99.90
47765;DHT22;33529;49.242;8.670;2022-11-15T06:32:06;8.70;99.90
47765;DHT22;33529;49.242;8.670;2022-11-15T06:34:52;8.70;99.90
47765;DHT22;33529;49.242;8.670;2022-11-15T06:37:38;8.70;99.90
47765;DHT22;33529;49.242;8.670;2022-11-15T06:40:23;8.70;99.90
47765;DHT22;33529;49.242;8.670;2022-11-15T06:43:08;8.70;99.90
47765;DHT22;33529;49.242;8.670;2022-11-15T06:45:54;8.80;99.90
47765;DHT22;33529;49.242;8.670;2022-11-15T06:48:39;8.80;99.90
47765;DHT22;33529;49.242;8.670;2022-11-15T06:51:25;8.90;99.90
47765;DHT22;33529;49.242;8.670;2022-11-15T06:54:10;9.00;99.90
47765;DHT22;33529;49.242;8.670;2022-11-15T06:56:55;9.00;99.90
47765;DHT22;33529;49.242;8.670;2022-11-15T06:59:41;9.00;99.90
47765;DHT22;33529;49.242;8.670;2022-11-15T07:02:26;9.10;99.90
47765;DHT22;33529;49.242;8.670;2022-11-15T07:05:12;9.10;99.90
47765;DHT22;33529;49.242;8.670;2022-11-15T07:07:58;9.10;99.90
47765;DHT22;33529;49.242;8.670;2022-11-15T07:10:44;9.10;99.90
47765;DHT22;33529;49.242;8.670;2022-11-15T07:13:31;9.10;99.90
47765;DHT22;33529;49.242;8.670;2022-11-15T07:16:19;9.20;99.90
47765;DHT22;33529;49.242;8.670;2022-11-15T07:19:04;9.30;99.90
47765;DHT22;33529;49.242;8.670;2022-11-15T07:21:50;9.30;99.90
47765;DHT22;33529;49.242;8.670;2022-11-15T07:24:35;9.30;99.90
47765;DHT22;33529;49.242;8.670;2022-11-15T07:27:21;9.40;99.90
47765;DHT22;33529;49.242;8.670;2022-11-15T07:30:07;9.50;99.90
47765;DHT22;33529;49.242;8.670;2022-11-15T07:33:00;9.60;99.90
47765;DHT22;33529;49.242;8.670;2022-11-15T07:35:45;9.60;99.90
47765;DHT22;33529;49.242;8.670;2022-11-15T07:38:34;9.70;99.90
47765;DHT22;33529;49.242;8.670;2022-11-15T07:41:26;9.60;99.90
47765;DHT22;33529;49.242;8.670;2022-11-15T07:44:12;9.60;99.90
47765;DHT22;33529;49.242;8.670;2022-11-15T07:46:57;9.70;99.90
47765;DHT22;33529;49.242;8.670;2022-11-15T07:49:43;9.70;99.90
47765;DHT22;33529;49.242;8.670;2022-11-15T07:52:28;9.70;99.90
47765;DHT22;33529;49.242;8.670;2022-11-15T07:55:14;9.80;99.90
47765;DHT22;33529;49.242;8.670;2022-11-15T07:58:01;9.80;99.90
47765;DHT22;33529;49.242;8.670;2022-11-15T08:00:47;9.90;99.90
47765;DHT22;33529;49.242;8.670;2022-11-15T08:03:32;10.00;99.90
47765;DHT22;33529;49.242;8.670;2022-11-15T08:06:19;10.10;99.90
47765;DHT22;33529;49.242;8.670;2022-11-15T08:09:04;10.10;99.90
47765;DHT22;33529;49.242;8.670;2022-11-15T08:11:50;10.10;99.90
47765;DHT22;33529;49.242;8.670;2022-11-15T08:14:35;10.10;99.90
47765;DHT22;33529;49.242;8.670;2022-11-15T08:17:22;10.20;99.90
47765;DHT22;33529;49.242;8.670;2022-11-15T08:20:08;10.30;99.90
47765;DHT22;33529;49.242;8.670;2022-11-15T08:22:53;10.40;99.90
47765;DHT22;33529;49.242;8.670;2022-11-15T08:25:39;10.40;99.90
47765;DHT22;33529;49.242;8.670;2022-11-15T08:28:24;10.50;99.90
47765;DHT22;33529;49.242;8.670;2022-11-15T08:31:14;10.60;99.90
47765;DHT22;33529;49.242;8.670;2022-11-15T08:34:00;10.80;99.90
47765;DHT22;33529;49.242;8.670;2022-11-15T08:36:46;10.80;99.90
47765;DHT22;33529;49.242;8.670;2022-11-15T08:39:32;10.80;99.90
47765;DHT22;33529;49.242;8.670;2022-11-15T08:42:17;10.90;99.90
47765;DHT22;33529;49.242;8.670;2022-11-15T08:45:04;10.80;99.90
47765;DHT22;33529;49.242;8.670;2022-11-15T08:47:50;10.80;99.90
47765;DHT22;33529;49.242;8.670;2022-11-15T08:50:38;10.80;99.90
47765;DHT22;33529;49.242;8.670;2022-11-15T08:53:23;10.90;99.90
47765;DHT22;33529;49.242;8.670;2022-11-15T08:56:13;10.80;99.90
47765;DHT22;33529;49.242;8.670;2022-11-15T08:58:58;10.90;99.90
47765;DHT22;33529;49.242;8.670;2022-11-15T09:01:44;10.90;99.90
47765;DHT22;33529;49.242;8.670;2022-11-15T09:04:29;10.90;99.90
47765;DHT22;33529;49.242;8.670;2022-11-15T09:07:15;11.00;99.90
47765;DHT22;33529;49.242;8.670;2022-11-15T09:10:00;11.10;99.90
47765;DHT22;33529;49.242;8.670;2022-11-15T09:12:45;11.00;99.90
47765;DHT22;33529;49.242;8.670;2022-11-15T09:15:34;11.10;99.90
47765;DHT22;33529;49.242;8.670;2022-11-15T09:18:19;11.20;99.90
47765;DHT22;33529;49.242;8.670;2022-11-15T09:21:07;11.30;99.90
47765;DHT22;33529;49.242;8.670;2022-11-15T09:23:52;11.40;99.90
47765;DHT22;33529;49.242;8.670;2022-11-15T09:26:38;11.40;99.90
47765;DHT22;33529;49.242;8.670;2022-11-15T09:29:24;11.50;99.90
47765;DHT22;33529;49.242;8.670;2022-11-15T09:32:09;11.50;99.90
47765;DHT22;33529;49.242;8.670;2022-11-15T09:34:55;11.60;99.90
47765;DHT22;33529;49.242;8.670;2022-11-15T09:37:40;11.70;99.90
47765;DHT22;33529;49.242;8.670;2022-11-15T09:40:25;11.70;99.90
47765;DHT22;33529;49.242;8.670;2022-11-15T09:43:39;11.90;99.90
47765;DHT22;33529;49.242;8.670;2022-11-15T09:46:59;11.90;99.90
47765;DHT22;33529;49.242;8.670;2022-11-15T09:50:12;12.10;99.90
47765;DHT22;33529;49.242;8.670;2022-11-15T09:52:44;12.10;99.90
47765;DHT22;33529;49.242;8.670;2022-11-15T09:55:12;12.00;99.90
47765;DHT22;33529;49.242;8.670;2022-11-15T10:00:40;12.30;99.90
47765;DHT22;33529;49.242;8.670;2022-11-15T10:03:27;12.30;99.90
47765;DHT22;33529;49.242;8.670;2022-11-15T10:05:57;12.50;99.90
47765;DHT22;33529;49.242;8.670;2022-11-15T10:11:17;12.70;99.90
47765;DHT22;33529;49.242;8.670;2022-11-15T10:14:14;12.80;99.90
47765;DHT22;33529;49.242;8.670;2022-11-15T10:17:06;12.80;99.90
47765;DHT22;33529;49.242;8.670;2022-11-15T10:27:35;13.00;99.90
47765;DHT22;33529;49.242;8.670;2022-11-15T10:30:06;12.90;99.90
47765;DHT22;33529;49.242;8.670;2022-11-15T10:32:36;12.80;99.90
47765;DHT22;33529;49.242;8.670;2022-11-15T10:35:26;12.60;99.90
47765;DHT22;33529;49.242;8.670;2022-11-15T10:38:08;12.60;99.90
47765;DHT22;33529;49.242;8.670;2022-11-15T10:40:35;12.70;99.90
47765;DHT22;33529;49.242;8.670;2022-11-15T10:45:37;12.80;99.90
47765;DHT22;33529;49.242;8.670;2022-11-15T10:50:45;12.80;99.90
47765;DHT22;33529;49.242;8.670;2022-11-15T10:53:38;13.00;99.90
47765;DHT22;33529;49.242;8.670;2022-11-15T10:56:12;13.00;99.90
47765;DHT22;33529;49.242;8.670;2022-11-15T10:58:44;13.00;99.90
47765;DHT22;33529;49.242;8.670;2022-11-15T11:01:19;13.10;99.90
47765;DHT22;33529;49.242;8.670;2022-11-15T11:06:29;13.30;99.90
47765;DHT22;33529;49.242;8.670;2022-11-15T11:08:59;13.40;99.90
47765;DHT22;33529;49.242;8.670;2022-11-15T11:11:46;13.50;99.90
47765;DHT22;33529;49.242;8.670;2022-11-15T11:14:33;13.50;99.90
47765;DHT22;33529;49.242;8.670;2022-11-15T11:17:09;13.40;99.90
47765;DHT22;33529;49.242;8.670;2022-11-15T11:19:49;13.60;99.90
47765;DHT22;33529;49.242;8.670;2022-11-15T11:30:47;13.70;99.90
47765;DHT22;33529;49.242;8.670;2022-11-15T11:33:24;13.70;99.90
47765;DHT22;33529;49.242;8.670;2022-11-15T11:36:03;13.60;99.90
47765;DHT22;33529;49.242;8.670;2022-11-15T11:46:56;13.60;99.90
47765;DHT22;33529;49.242;8.670;2022-11-15T11:49:46;13.50;99.90
47765;DHT22;33529;49.242;8.670;2022-11-15T11:52:31;13.70;99.90
47765;DHT22;33529;49.242;8.670;2022-11-15T11:55:11;13.80;99.90
47765;DHT22;33529;49.242;8.670;2022-11-15T11:58:12;13.90;99.90
47765;DHT22;33529;49.242;8.670;2022-11-15T12:00:51;13.80;99.90
47765;DHT22;33529;49.242;8.670;2022-11-15T12:06:55;13.80;99.90
47765;DHT22;33529;49.242;8.670;2022-11-15T12:09:36;13.80;99.90
47765;DHT22;33529;49.242;8.670;2022-11-15T12:12:08;13.90;99.90
47765;DHT22;33529;49.242;8.670;2022-11-15T12:17:02;13.90;99.90
47765;DHT22;33529;49.242;8.670;2022-11-15T12:19:29;13.80;99.90
47765;DHT22;33529;49.242;8.670;2022-11-15T12:22:06;13.70;99.90
47765;DHT22;33529;49.242;8.670;2022-11-15T12:24:40;13.70;99.90
47765;DHT22;33529;49.242;8.670;2022-11-15T12:27:16;13.80;99.90
47765;DHT22;33529;49.242;8.670;2022-11-15T12:29:55;13.70;99.90
47765;DHT22;33529;49.242;8.670;2022-11-15T12:32:25;13.70;99.90
47765;DHT22;33529;49.242;8.670;2022-11-15T12:34:53;13.70;99.90
47765;DHT22;33529;49.242;8.670;2022-11-15T12:42:42;13.40;99.90
47765;DHT22;33529;49.242;8.670;2022-11-15T12:45:43;13.40;99.90
47765;DHT22;33529;49.242;8.670;2022-11-15T12:56:18;13.50;99.90
47765;DHT22;33529;49.242;8.670;2022-11-15T13:12:10;14.00;99.90
47765;DHT22;33529;49.242;8.670;2022-11-15T13:14:41;14.10;99.90
47765;DHT22;33529;49.242;8.670;2022-11-15T13:17:33;14.10;99.90
47765;DHT22;33529;49.242;8.670;2022-11-15T13:20:14;14.10;99.90
47765;DHT22;33529;49.242;8.670;2022-11-15T13:30:54;14.10;99.90
47765;DHT22;33529;49.242;8.670;2022-11-15T13:36:08;14.10;99.90
47765;DHT22;33529;49.242;8.670;2022-11-15T13:38:37;14.20;99.90
47765;DHT22;33529;49.242;8.670;2022-11-15T13:41:20;14.30;99.90
47765;DHT22;33529;49.242;8.670;2022-11-15T13:43:48;14.40;99.90
47765;DHT22;33529;49.242;8.670;2022-11-15T13:46:19;14.50;99.90
47765;DHT22;33529;49.242;8.670;2022-11-15T13:48:51;14.50;99.90
47765;DHT22;33529;49.242;8.670;2022-11-15T13:54:05;14.40;99.90
47765;DHT22;33529;49.242;8.670;2022-11-15T13:56:34;14.40;99.90
47765;DHT22;33529;49.242;8.670;2022-11-15T13:59:09;14.30;99.90
47765;DHT22;33529;49.242;8.670;2022-11-15T14:01:37;14.30;99.90
47765;DHT22;33529;49.242;8.670;2022-11-15T14:04:12;14.30;99.90
47765;DHT22;33529;49.242;8.670;2022-11-15T14:06:53;14.20;99.90
47765;DHT22;33529;49.242;8.670;2022-11-15T14:09:38;14.10;99.90
47765;DHT22;33529;49.242;8.670;2022-11-15T14:12:28;14.00;99.90
47765;DHT22;33529;49.242;8.670;2022-11-15T14:14:57;13.90;99.90
47765;DHT22;33529;49.242;8.670;2022-11-15T14:19:57;13.90;99.90
47765;DHT22;33529;49.242;8.670;2022-11-15T14:22:26;13.90;99.90
47765;DHT22;33529;49.242;8.670;2022-11-15T14:27:40;13.90;99.90
47765;DHT22;33529;49.242;8.670;2022-11-15T14:30:16;13.90;99.90
47765;DHT22;33529;49.242;8.670;2022-11-15T14:32:47;13.90;99.90
47765;DHT22;33529;49.242;8.670;2022-11-15T14:35:18;13.80;99.90
47765;DHT22;33529;49.242;8.670;2022-11-15T14:37:45;13.80;99.90
47765;DHT22;33529;49.242;8.670;2022-11-15T14:40:21;13.70;99.90
47765;DHT22;33529;49.242;8.670;2022-11-15T14:42:49;13.60;99.90
47765;DHT22;33529;49.242;8.670;2022-11-15T14:45:18;13.50;99.90
47765;DHT22;33529;49.242;8.670;2022-11-15T14:47:46;13.50;99.90
47765;DHT22;33529;49.242;8.670;2022-11-15T14:50:14;13.50;99.90
47765;DHT22;33529;49.242;8.670;2022-11-15T14:52:41;13.50;99.90
47765;DHT22;33529;49.242;8.670;2022-11-15T14:55:24;13.50;99.90
47765;DHT22;33529;49.242;8.670;2022-11-15T14:57:51;13.40;99.90
47765;DHT22;33529;49.242;8.670;2022-11-15T15:00:21;13.40;99.90
47765;DHT22;33529;49.242;8.670;2022-11-15T15:02:51;13.30;99.90
47765;DHT22;33529;49.242;8.670;2022-11-15T15:05:24;13.30;99.90
47765;DHT22;33529;49.242;8.670;2022-11-15T15:07:51;13.20;99.90
47765;DHT22;33529;49.242;8.670;2022-11-15T15:10:20;13.10;99.90
47765;DHT22;33529;49.242;8.670;2022-11-15T15:13:19;13.00;99.90
47765;DHT22;33529;49.242;8.670;2022-11-15T15:15:47;12.90;99.90
47765;DHT22;33529;49.242;8.670;2022-11-15T15:18:14;12.90;99.90
47765;DHT22;33529;49.242;8.670;2022-11-15T15:20:43;12.80;99.90
47765;DHT22;33529;49.242;8.670;2022-11-15T15:23:18;12.80;99.90
47765;DHT22;33529;49.242;8.670;2022-11-15T15:25:46;12.80;99.90
47765;DHT22;33529;49.242;8.670;2022-11-15T15:28:15;12.80;99.90
47765;DHT22;33529;49.242;8.670;2022-11-15T15:30:42;12.80;99.90
47765;DHT22;33529;49.242;8.670;2022-11-15T15:33:09;12.80;99.90
47765;DHT22;33529;49.242;8.670;2022-11-15T15:35:36;12.80;99.90
47765;DHT22;33529;49.242;8.670;2022-11-15T15:38:03;12.70;99.90
47765;DHT22;33529;49.242;8.670;2022-11-15T15:40:32;12.60;99.90
47765;DHT22;33529;49.242;8.670;2022-11-15T15:43:00;12.60;99.90
47765;DHT22;33529;49.242;8.670;2022-11-15T15:45:27;12.70;99.90
47765;DHT22;33529;49.242;8.670;2022-11-15T15:47:57;12.70;99.90
47765;DHT22;33529;49.242;8.670;2022-11-15T15:50:27;12.70;99.90
47765;DHT22;33529;49.242;8.670;2022-11-15T15:53:00;12.70;99.90
47765;DHT22;33529;49.242;8.670;2022-11-15T15:55:28;12.70;99.90
47765;DHT22;33529;49.242;8.670;2022-11-15T15:57:55;12.70;99.90
47765;DHT22;33529;49.242;8.670;2022-11-15T16:00:23;12.70;99.90
47765;DHT22;33529;49.242;8.670;2022-11-15T16:02:52;12.70;99.90
47765;DHT22;33529;49.242;8.670;2022-11-15T16:05:19;12.70;99.90
47765;DHT22;33529;49.242;8.670;2022-11-15T16:07:46;12.60;99.90
47765;DHT22;33529;49.242;8.670;2022-11-15T16:12:47;12.70;99.90
47765;DHT22;33529;49.242;8.670;2022-11-15T16:15:14;12.70;99.90
47765;DHT22;33529;49.242;8.670;2022-11-15T16:17:48;12.70;99.90
47765;DHT22;33529;49.242;8.670;2022-11-15T16:20:55;12.70;99.90
47765;DHT22;33529;49.242;8.670;2022-11-15T16:23:23;12.70;99.90
47765;DHT22;33529;49.242;8.670;2022-11-15T16:25:55;12.70;99.90
47765;DHT22;33529;49.242;8.670;2022-11-15T16:31:04;12.70;99.90
47765;DHT22;33529;49.242;8.670;2022-11-15T16:33:31;12.70;99.90
47765;DHT22;33529;49.242;8.670;2022-11-15T16:35:59;12.70;99.90
47765;DHT22;33529;49.242;8.670;2022-11-15T16:38:25;12.70;99.90
47765;DHT22;33529;49.242;8.670;2022-11-15T16:40:52;12.70;99.90
47765;DHT22;33529;49.242;8.670;2022-11-15T16:43:19;12.70;99.90
47765;DHT22;33529;49.242;8.670;2022-11-15T16:45:46;12.70;99.90
47765;DHT22;33529;49.242;8.670;2022-11-15T16:48:26;12.70;99.90
47765;DHT22;33529;49.242;8.670;2022-11-15T16:50:57;12.60;99.90
47765;DHT22;33529;49.242;8.670;2022-11-15T16:53:25;12.70;99.90
47765;DHT22;33529;49.242;8.670;2022-11-15T16:55:54;12.60;99.90
47765;DHT22;33529;49.242;8.670;2022-11-15T16:58:21;12.60;99.90
47765;DHT22;33529;49.242;8.670;2022-11-15T17:00:55;12.60;99.90
47765;DHT22;33529;49.242;8.670;2022-11-15T17:03:23;12.60;99.90
47765;DHT22;33529;49.242;8.670;2022-11-15T17:05:50;12.60;99.90
47765;DHT22;33529;49.242;8.670;2022-11-15T17:08:17;12.60;99.90
47765;DHT22;33529;49.242;8.670;2022-11-15T17:10:46;12.70;99.90
47765;DHT22;33529;49.242;8.670;2022-11-15T17:13:13;12.60;99.90
47765;DHT22;33529;49.242;8.670;2022-11-15T17:15:40;12.70;99.90
47765;DHT22;33529;49.242;8.670;2022-11-15T17:18:10;12.70;99.90
47765;DHT22;33529;49.242;8.670;2022-11-15T17:20:39;12.70;99.90
47765;DHT22;33529;49.242;8.670;2022-11-15T17:23:11;12.70;99.90
47765;DHT22;33529;49.242;8.670;2022-11-15T17:25:40;12.60;99.90
47765;DHT22;33529;49.242;8.670;2022-11-15T17:28:07;12.60;99.90
47765;DHT22;33529;49.242;8.670;2022-11-15T17:30:33;12.70;99.90
47765;DHT22;33529;49.242;8.670;2022-11-15T17:33:01;12.70;99.90
47765;DHT22;33529;49.242;8.670;2022-11-15T17:35:28;12.60;99.90
47765;DHT22;33529;49.242;8.670;2022-11-15T17:37:54;12.60;99.90
47765;DHT22;33529;49.242;8.670;2022-11-15T17:40:21;12.70;99.90
47765;DHT22;33529;49.242;8.670;2022-11-15T17:42:48;12.70;99.90
47765;DHT22;33529;49.242;8.670;2022-11-15T17:45:15;12.70;99.90
47765;DHT22;33529;49.242;8.670;2022-11-15T17:47:42;12.70;99.90
47765;DHT22;33529;49.242;8.670;2022-11-15T17:50:08;12.70;99.90
47765;DHT22;33529;49.242;8.670;2022-11-15T17:52:36;12.70;99.90
47765;DHT22;33529;49.242;8.670;2022-11-15T17:55:03;12.70;99.90
47765;DHT22;33529;49.242;8.670;2022-11-15T17:57:30;12.70;99.90
47765;DHT22;33529;49.242;8.670;2022-11-15T17:59:56;12.70;99.90
47765;DHT22;33529;49.242;8.670;2022-11-15T18:02:23;12.70;99.90
47765;DHT22;33529;49.242;8.670;2022-11-15T18:04:50;12.70;99.90
47765;DHT22;33529;49.242;8.670;2022-11-15T18:07:17;12.70;99.90
47765;DHT22;33529;49.242;8.670;2022-11-15T18:09:43;12.80;99.90
47765;DHT22;33529;49.242;8.670;2022-11-15T18:12:11;12.80;99.90
47765;DHT22;33529;49.242;8.670;2022-11-15T18:14:38;12.80;99.90
47765;DHT22;33529;49.242;8.670;2022-11-15T18:17:05;12.80;99.90
47765;DHT22;33529;49.242;8.670;2022-11-15T18:19:32;12.80;99.90
47765;DHT22;33529;49.242;8.670;2022-11-15T18:21:59;12.80;99.90
47765;DHT22;33529;49.242;8.670;2022-11-15T18:24:29;12.80;99.90
47765;DHT22;33529;49.242;8.670;2022-11-15T18:26:56;12.80;99.90
47765;DHT22;33529;49.242;8.670;2022-11-15T18:29:24;12.70;99.90
47765;DHT22;33529;49.242;8.670;2022-11-15T18:31:51;12.80;99.90
47765;DHT22;33529;49.242;8.670;2022-11-15T18:34:23;12.70;99.90
47765;DHT22;33529;49.242;8.670;2022-11-15T18:36:51;12.70;99.90
47765;DHT22;33529;49.242;8.670;2022-11-15T18:39:19;12.70;99.90
47765;DHT22;33529;49.242;8.670;2022-11-15T18:41:46;12.70;99.90
47765;DHT22;33529;49.242;8.670;2022-11-15T18:44:14;12.70;99.90
47765;DHT22;33529;49.242;8.670;2022-11-15T18:46:42;12.70;99.90
47765;DHT22;33529;49.242;8.670;2022-11-15T18:49:12;12.70;99.90
47765;DHT22;33529;49.242;8.670;2022-11-15T18:51:40;12.60;99.90
47765;DHT22;33529;49.242;8.670;2022-11-15T18:54:10;12.50;99.90
47765;DHT22;33529;49.242;8.670;2022-11-15T18:56:37;12.50;99.90
47765;DHT22;33529;49.242;8.670;2022-11-15T18:59:04;12.40;99.90
47765;DHT22;33529;49.242;8.670;2022-11-15T19:01:34;12.40;99.90
47765;DHT22;33529;49.242;8.670;2022-11-15T19:04:21;12.50;99.90